sensor_id;sensor_type;location;lat;lon;timestamp;temperature;humidity
27747;DHT22;15138;51.012;4.692;2022-08-25T00:01:20;23.30;99.90
27747;DHT22;15138;51.012;4.692;2022-08-25T00:03:52;23.30;81.00
27747;DHT22;15138;51.012;4.692;2022-08-25T00:06:22;23.30;46.40
27747;DHT22;15138;51.012;4.692;2022-08-25T00:08:50;23.20;99.90
27747;DHT22;15138;51.012;4.692;2022-08-25T00:11:19;23.10;99.90
27747;DHT22;15138;51.012;4.692;2022-08-25T00:13:48;23.10;99.90
27747;DHT22;15138;51.012;4.692;2022-08-25T00:16:18;23.10;99.90
27747;DHT22;15138;51.012;4.692;2022-08-25T00:18:48;23.00;99.90
27747;DHT22;15138;51.012;4.692;2022-08-25T00:21:16;22.90;99.90
27747;DHT22;15138;51.012;4.692;2022-08-25T00:23:44;22.90;1.00
27747;DHT22;15138;51.012;4.692;2022-08-25T00:26:12;22.80;99.90
27747;DHT22;15138;51.012;4.692;2022-08-25T00:28:41;22.70;1.00
27747;DHT22;15138;51.012;4.692;2022-08-25T00:31:11;22.60;1.00
27747;DHT22;15138;51.012;4.692;2022-08-25T00:33:40;22.50;64.90
27747;DHT22;15138;51.012;4.692;2022-08-25T00:36:10;22.50;99.90
27747;DHT22;15138;51.012;4.692;2022-08-25T00:38:38;22.50;99.90
27747;DHT22;15138;51.012;4.692;2022-08-25T00:41:07;22.50;1.00
27747;DHT22;15138;51.012;4.692;2022-08-25T00:43:42;22.50;1.00
27747;DHT22;15138;51.012;4.692;2022-08-25T00:46:11;22.40;1.00
27747;DHT22;15138;51.012;4.692;2022-08-25T00:48:40;22.40;1.00
27747;DHT22;15138;51.012;4.692;2022-08-25T00:51:12;22.40;1.00
27747;DHT22;15138;51.012;4.692;2022-08-25T00:53:41;22.30;1.00
27747;DHT22;15138;51.012;4.692;2022-08-25T00:56:10;22.20;1.00
27747;DHT22;15138;51.012;4.692;2022-08-25T00:58:39;22.10;99.90
27747;DHT22;15138;51.012;4.692;2022-08-25T01:01:08;22.00;99.90
27747;DHT22;15138;51.012;4.692;2022-08-25T01:03:36;21.80;99.90
27747;DHT22;15138;51.012;4.692;2022-08-25T01:06:04;21.80;1.00
27747;DHT22;15138;51.012;4.692;2022-08-25T01:08:33;21.80;86.80
27747;DHT22;15138;51.012;4.692;2022-08-25T01:11:02;21.80;1.00
27747;DHT22;15138;51.012;4.692;2022-08-25T01:13:32;21.80;1.00
27747;DHT22;15138;51.012;4.692;2022-08-25T01:16:00;21.80;1.00
27747;DHT22;15138;51.012;4.692;2022-08-25T01:18:31;21.70;62.40
27747;DHT22;15138;51.012;4.692;2022-08-25T01:21:09;21.70;99.90
27747;DHT22;15138;51.012;4.692;2022-08-25T01:23:37;21.70;99.90
27747;DHT22;15138;51.012;4.692;2022-08-25T01:26:08;21.60;1.00
27747;DHT22;15138;51.012;4.692;2022-08-25T01:28:37;21.60;99.90
27747;DHT22;15138;51.012;4.692;2022-08-25T01:31:25;21.50;99.90
27747;DHT22;15138;51.012;4.692;2022-08-25T01:33:55;21.50;99.90
27747;DHT22;15138;51.012;4.692;2022-08-25T01:36:24;21.40;1.00
27747;DHT22;15138;51.012;4.692;2022-08-25T01:38:52;21.50;99.90
27747;DHT22;15138;51.012;4.692;2022-08-25T01:41:21;21.40;99.90
27747;DHT22;15138;51.012;4.692;2022-08-25T01:43:52;21.30;1.00
27747;DHT22;15138;51.012;4.692;2022-08-25T01:46:20;21.20;21.20
27747;DHT22;15138;51.012;4.692;2022-08-25T01:48:48;21.20;1.00
27747;DHT22;15138;51.012;4.692;2022-08-25T01:51:16;21.10;1.00
27747;DHT22;15138;51.012;4.692;2022-08-25T01:53:47;21.20;1.00
27747;DHT22;15138;51.012;4.692;2022-08-25T01:56:16;21.20;1.00
27747;DHT22;15138;51.012;4.692;2022-08-25T01:58:45;21.10;1.00
27747;DHT22;15138;51.012;4.692;2022-08-25T02:01:15;21.10;1.00
27747;DHT22;15138;51.012;4.692;2022-08-25T02:03:50;21.10;1.00
27747;DHT22;15138;51.012;4.692;2022-08-25T02:06:18;21.10;47.10
27747;DHT22;15138;51.012;4.692;2022-08-25T02:08:57;21.00;1.00
27747;DHT22;15138;51.012;4.692;2022-08-25T02:11:26;20.90;1.00
27747;DHT22;15138;51.012;4.692;2022-08-25T02:13:54;20.90;99.90
27747;DHT22;15138;51.012;4.692;2022-08-25T02:16:25;20.90;1.00
27747;DHT22;15138;51.012;4.692;2022-08-25T02:18:54;20.90;99.90
27747;DHT22;15138;51.012;4.692;2022-08-25T02:21:22;20.80;99.90
27747;DHT22;15138;51.012;4.692;2022-08-25T02:23:50;20.80;1.00
27747;DHT22;15138;51.012;4.692;2022-08-25T02:26:20;20.80;42.30
27747;DHT22;15138;51.012;4.692;2022-08-25T02:28:48;20.80;99.90
27747;DHT22;15138;51.012;4.692;2022-08-25T02:31:17;20.70;26.60
27747;DHT22;15138;51.012;4.692;2022-08-25T02:33:45;20.70;99.90
27747;DHT22;15138;51.012;4.692;2022-08-25T02:36:13;20.60;99.90
27747;DHT22;15138;51.012;4.692;2022-08-25T02:38:41;20.60;99.90
27747;DHT22;15138;51.012;4.692;2022-08-25T02:41:10;20.50;99.90
27747;DHT22;15138;51.012;4.692;2022-08-25T02:43:41;20.50;99.90
27747;DHT22;15138;51.012;4.692;2022-08-25T02:46:09;20.40;99.90
27747;DHT22;15138;51.012;4.692;2022-08-25T02:48:38;20.40;1.00
27747;DHT22;15138;51.012;4.692;2022-08-25T02:51:06;20.40;79.60
27747;DHT22;15138;51.012;4.692;2022-08-25T02:53:35;20.40;99.90
27747;DHT22;15138;51.012;4.692;2022-08-25T02:56:06;20.20;1.00
27747;DHT22;15138;51.012;4.692;2022-08-25T02:58:35;20.30;99.90
27747;DHT22;15138;51.012;4.692;2022-08-25T03:01:05;20.30;99.90
27747;DHT22;15138;51.012;4.692;2022-08-25T03:03:33;20.30;99.90
27747;DHT22;15138;51.012;4.692;2022-08-25T03:06:05;20.20;1.00
27747;DHT22;15138;51.012;4.692;2022-08-25T03:08:33;20.10;1.00
27747;DHT22;15138;51.012;4.692;2022-08-25T03:11:01;20.10;59.80
27747;DHT22;15138;51.012;4.692;2022-08-25T03:13:29;20.10;1.00
27747;DHT22;15138;51.012;4.692;2022-08-25T03:15:57;20.10;1.00
27747;DHT22;15138;51.012;4.692;2022-08-25T03:18:27;20.00;99.90
27747;DHT22;15138;51.012;4.692;2022-08-25T03:20:55;19.90;99.90
27747;DHT22;15138;51.012;4.692;2022-08-25T03:23:23;19.90;1.00
27747;DHT22;15138;51.012;4.692;2022-08-25T03:25:52;19.80;99.90
27747;DHT22;15138;51.012;4.692;2022-08-25T03:28:37;19.70;1.00
27747;DHT22;15138;51.012;4.692;2022-08-25T03:31:05;19.70;1.00
27747;DHT22;15138;51.012;4.692;2022-08-25T03:33:34;19.70;99.90
27747;DHT22;15138;51.012;4.692;2022-08-25T03:36:04;19.80;99.90
27747;DHT22;15138;51.012;4.692;2022-08-25T03:38:32;19.80;99.90
27747;DHT22;15138;51.012;4.692;2022-08-25T03:41:00;19.80;37.60
27747;DHT22;15138;51.012;4.692;2022-08-25T03:43:28;19.80;99.90
27747;DHT22;15138;51.012;4.692;2022-08-25T03:45:55;19.70;1.00
27747;DHT22;15138;51.012;4.692;2022-08-25T03:48:23;19.70;99.90
27747;DHT22;15138;51.012;4.692;2022-08-25T03:50:52;19.70;1.00
27747;DHT22;15138;51.012;4.692;2022-08-25T03:53:20;19.70;1.00
27747;DHT22;15138;51.012;4.692;2022-08-25T03:55:49;19.70;1.00
27747;DHT22;15138;51.012;4.692;2022-08-25T03:58:17;19.70;1.00
27747;DHT22;15138;51.012;4.692;2022-08-25T04:00:45;19.70;99.90
27747;DHT22;15138;51.012;4.692;2022-08-25T04:03:12;19.70;99.90
27747;DHT22;15138;51.012;4.692;2022-08-25T04:05:40;19.60;99.90
27747;DHT22;15138;51.012;4.692;2022-08-25T04:08:10;19.60;99.90
27747;DHT22;15138;51.012;4.692;2022-08-25T04:10:37;19.60;99.90
27747;DHT22;15138;51.012;4.692;2022-08-25T04:13:05;19.50;99.90
27747;DHT22;15138;51.012;4.692;2022-08-25T04:15:33;19.50;99.90
27747;DHT22;15138;51.012;4.692;2022-08-25T04:18:02;19.50;99.90
27747;DHT22;15138;51.012;4.692;2022-08-25T04:20:30;19.40;9.90
27747;DHT22;15138;51.012;4.692;2022-08-25T04:22:58;19.50;1.00
27747;DHT22;15138;51.012;4.692;2022-08-25T04:25:28;19.40;99.90
27747;DHT22;15138;51.012;4.692;2022-08-25T04:27:56;19.40;1.00
27747;DHT22;15138;51.012;4.692;2022-08-25T04:30:24;19.30;99.90
27747;DHT22;15138;51.012;4.692;2022-08-25T04:32:52;19.30;99.90
27747;DHT22;15138;51.012;4.692;2022-08-25T04:35:20;19.40;1.00
27747;DHT22;15138;51.012;4.692;2022-08-25T04:37:49;19.30;38.50
27747;DHT22;15138;51.012;4.692;2022-08-25T04:40:17;19.30;65.40
27747;DHT22;15138;51.012;4.692;2022-08-25T04:42:55;19.30;1.00
27747;DHT22;15138;51.012;4.692;2022-08-25T04:45:23;19.30;99.90
27747;DHT22;15138;51.012;4.692;2022-08-25T04:47:51;19.30;1.00
27747;DHT22;15138;51.012;4.692;2022-08-25T04:50:20;19.30;1.00
27747;DHT22;15138;51.012;4.692;2022-08-25T04:52:48;19.30;99.90
27747;DHT22;15138;51.012;4.692;2022-08-25T04:55:16;19.20;99.90
27747;DHT22;15138;51.012;4.692;2022-08-25T04:57:44;19.20;1.00
27747;DHT22;15138;51.012;4.692;2022-08-25T05:00:14;19.10;32.40
27747;DHT22;15138;51.012;4.692;2022-08-25T05:02:43;19.10;99.90
27747;DHT22;15138;51.012;4.692;2022-08-25T05:05:11;19.10;99.90
27747;DHT22;15138;51.012;4.692;2022-08-25T05:07:39;19.10;1.00
27747;DHT22;15138;51.012;4.692;2022-08-25T05:10:07;19.10;1.00
27747;DHT22;15138;51.012;4.692;2022-08-25T05:12:35;19.20;99.90
27747;DHT22;15138;51.012;4.692;2022-08-25T05:15:03;19.20;99.90
27747;DHT22;15138;51.012;4.692;2022-08-25T05:17:52;19.20;99.90
27747;DHT22;15138;51.012;4.692;2022-08-25T05:20:21;19.20;1.00
27747;DHT22;15138;51.012;4.692;2022-08-25T05:22:50;19.30;99.90
27747;DHT22;15138;51.012;4.692;2022-08-25T05:25:18;19.30;1.00
27747;DHT22;15138;51.012;4.692;2022-08-25T05:27:46;19.40;99.90
27747;DHT22;15138;51.012;4.692;2022-08-25T05:30:14;19.40;99.90
27747;DHT22;15138;51.012;4.692;2022-08-25T05:32:42;19.40;99.90
27747;DHT22;15138;51.012;4.692;2022-08-25T05:35:11;19.40;1.00
27747;DHT22;15138;51.012;4.692;2022-08-25T05:37:39;19.40;1.00
27747;DHT22;15138;51.012;4.692;2022-08-25T05:40:07;19.50;1.00
27747;DHT22;15138;51.012;4.692;2022-08-25T05:42:36;19.50;99.90
27747;DHT22;15138;51.012;4.692;2022-08-25T05:45:04;19.50;1.00
27747;DHT22;15138;51.012;4.692;2022-08-25T05:47:32;19.60;99.90
27747;DHT22;15138;51.012;4.692;2022-08-25T05:50:00;19.60;1.00
27747;DHT22;15138;51.012;4.692;2022-08-25T05:52:30;19.70;1.00
27747;DHT22;15138;51.012;4.692;2022-08-25T05:54:58;19.80;99.90
27747;DHT22;15138;51.012;4.692;2022-08-25T05:57:26;19.80;1.00
27747;DHT22;15138;51.012;4.692;2022-08-25T05:59:54;19.80;1.00
27747;DHT22;15138;51.012;4.692;2022-08-25T06:02:22;19.90;1.00
27747;DHT22;15138;51.012;4.692;2022-08-25T06:05:07;20.00;1.00
27747;DHT22;15138;51.012;4.692;2022-08-25T06:07:36;20.10;1.00
27747;DHT22;15138;51.012;4.692;2022-08-25T06:10:05;20.30;1.00
27747;DHT22;15138;51.012;4.692;2022-08-25T06:12:34;20.50;1.00
27747;DHT22;15138;51.012;4.692;2022-08-25T06:15:04;20.70;1.00
27747;DHT22;15138;51.012;4.692;2022-08-25T06:17:32;20.90;1.00
27747;DHT22;15138;51.012;4.692;2022-08-25T06:20:00;21.10;1.00
27747;DHT22;15138;51.012;4.692;2022-08-25T06:22:29;21.30;77.30
27747;DHT22;15138;51.012;4.692;2022-08-25T06:24:58;21.60;1.00
27747;DHT22;15138;51.012;4.692;2022-08-25T06:27:28;21.80;1.00
27747;DHT22;15138;51.012;4.692;2022-08-25T06:29:56;21.90;99.90
27747;DHT22;15138;51.012;4.692;2022-08-25T06:32:33;22.10;1.00
27747;DHT22;15138;51.012;4.692;2022-08-25T06:35:02;22.30;1.00
27747;DHT22;15138;51.012;4.692;2022-08-25T06:37:31;22.50;1.00
27747;DHT22;15138;51.012;4.692;2022-08-25T06:40:00;22.60;1.00
27747;DHT22;15138;51.012;4.692;2022-08-25T06:42:28;22.80;1.00
27747;DHT22;15138;51.012;4.692;2022-08-25T06:44:56;23.00;99.90
27747;DHT22;15138;51.012;4.692;2022-08-25T06:47:24;23.00;1.00
27747;DHT22;15138;51.012;4.692;2022-08-25T06:49:52;23.00;99.90
27747;DHT22;15138;51.012;4.692;2022-08-25T06:52:20;23.10;1.00
27747;DHT22;15138;51.012;4.692;2022-08-25T06:54:54;23.10;99.90
27747;DHT22;15138;51.012;4.692;2022-08-25T06:57:24;23.30;1.00
27747;DHT22;15138;51.012;4.692;2022-08-25T06:59:52;23.50;99.90
27747;DHT22;15138;51.012;4.692;2022-08-25T07:02:20;23.60;99.90
27747;DHT22;15138;51.012;4.692;2022-08-25T07:04:49;23.70;99.90
27747;DHT22;15138;51.012;4.692;2022-08-25T07:07:19;23.70;99.90
27747;DHT22;15138;51.012;4.692;2022-08-25T07:09:46;23.80;99.90
27747;DHT22;15138;51.012;4.692;2022-08-25T07:12:14;23.80;43.60
27747;DHT22;15138;51.012;4.692;2022-08-25T07:14:44;23.90;88.80
27747;DHT22;15138;51.012;4.692;2022-08-25T07:17:29;24.00;99.90
27747;DHT22;15138;51.012;4.692;2022-08-25T07:19:57;24.10;94.20
27747;DHT22;15138;51.012;4.692;2022-08-25T07:22:25;24.20;99.90
27747;DHT22;15138;51.012;4.692;2022-08-25T07:24:52;24.30;99.90
27747;DHT22;15138;51.012;4.692;2022-08-25T07:27:20;24.40;1.00
27747;DHT22;15138;51.012;4.692;2022-08-25T07:29:50;24.60;1.00
27747;DHT22;15138;51.012;4.692;2022-08-25T07:32:19;24.70;1.00
27747;DHT22;15138;51.012;4.692;2022-08-25T07:34:47;24.80;99.90
27747;DHT22;15138;51.012;4.692;2022-08-25T07:37:36;25.00;93.20
27747;DHT22;15138;51.012;4.692;2022-08-25T07:40:15;25.10;1.00
27747;DHT22;15138;51.012;4.692;2022-08-25T07:42:44;25.20;1.00
27747;DHT22;15138;51.012;4.692;2022-08-25T07:45:13;25.30;1.00
27747;DHT22;15138;51.012;4.692;2022-08-25T07:48:03;25.30;99.90
27747;DHT22;15138;51.012;4.692;2022-08-25T07:50:31;25.40;99.90
27747;DHT22;15138;51.012;4.692;2022-08-25T07:52:59;25.50;99.90
27747;DHT22;15138;51.012;4.692;2022-08-25T07:55:27;25.80;99.90
27747;DHT22;15138;51.012;4.692;2022-08-25T07:57:56;26.00;99.90
27747;DHT22;15138;51.012;4.692;2022-08-25T08:00:26;26.10;99.90
27747;DHT22;15138;51.012;4.692;2022-08-25T08:02:56;26.40;99.90
27747;DHT22;15138;51.012;4.692;2022-08-25T08:05:24;26.80;99.90
27747;DHT22;15138;51.012;4.692;2022-08-25T08:07:52;27.00;84.40
27747;DHT22;15138;51.012;4.692;2022-08-25T08:10:20;27.30;6.90
27747;DHT22;15138;51.012;4.692;2022-08-25T08:13:08;27.30;1.00
27747;DHT22;15138;51.012;4.692;2022-08-25T08:15:45;27.50;1.00
27747;DHT22;15138;51.012;4.692;2022-08-25T08:18:13;27.70;1.00
27747;DHT22;15138;51.012;4.692;2022-08-25T08:20:42;28.30;1.00
27747;DHT22;15138;51.012;4.692;2022-08-25T08:23:10;28.90;99.90
27747;DHT22;15138;51.012;4.692;2022-08-25T08:25:38;29.30;99.90
27747;DHT22;15138;51.012;4.692;2022-08-25T08:28:06;29.40;99.90
27747;DHT22;15138;51.012;4.692;2022-08-25T08:30:36;29.70;99.90
27747;DHT22;15138;51.012;4.692;2022-08-25T08:33:06;30.10;99.90
27747;DHT22;15138;51.012;4.692;2022-08-25T08:35:37;30.10;99.90
27747;DHT22;15138;51.012;4.692;2022-08-25T08:38:06;29.90;99.90
27747;DHT22;15138;51.012;4.692;2022-08-25T08:40:44;30.30;99.90
27747;DHT22;15138;51.012;4.692;2022-08-25T08:43:33;30.50;99.90
27747;DHT22;15138;51.012;4.692;2022-08-25T08:46:04;30.80;99.90
27747;DHT22;15138;51.012;4.692;2022-08-25T08:48:45;31.00;93.10
27747;DHT22;15138;51.012;4.692;2022-08-25T08:51:18;30.70;92.60
27747;DHT22;15138;51.012;4.692;2022-08-25T08:53:52;30.70;87.80
27747;DHT22;15138;51.012;4.692;2022-08-25T08:56:24;30.40;31.30
27747;DHT22;15138;51.012;4.692;2022-08-25T08:58:57;30.40;31.60
27747;DHT22;15138;51.012;4.692;2022-08-25T09:01:32;30.60;35.90
27747;DHT22;15138;51.012;4.692;2022-08-25T09:04:04;31.10;32.30
27747;DHT22;15138;51.012;4.692;2022-08-25T09:06:35;31.20;11.30
27747;DHT22;15138;51.012;4.692;2022-08-25T09:09:04;31.60;17.40
27747;DHT22;15138;51.012;4.692;2022-08-25T09:11:38;32.30;10.70
27747;DHT22;15138;51.012;4.692;2022-08-25T09:14:12;32.30;1.00
27747;DHT22;15138;51.012;4.692;2022-08-25T09:16:46;32.70;1.00
27747;DHT22;15138;51.012;4.692;2022-08-25T09:19:27;32.60;1.00
27747;DHT22;15138;51.012;4.692;2022-08-25T09:22:00;32.80;1.00
27747;DHT22;15138;51.012;4.692;2022-08-25T09:24:51;33.60;1.00
27747;DHT22;15138;51.012;4.692;2022-08-25T09:27:23;33.90;1.00
27747;DHT22;15138;51.012;4.692;2022-08-25T09:29:57;34.10;1.00
27747;DHT22;15138;51.012;4.692;2022-08-25T09:32:31;34.40;1.00
27747;DHT22;15138;51.012;4.692;2022-08-25T09:35:02;34.70;1.00
27747;DHT22;15138;51.012;4.692;2022-08-25T09:37:30;34.90;1.00
27747;DHT22;15138;51.012;4.692;2022-08-25T09:39:58;34.90;1.00
27747;DHT22;15138;51.012;4.692;2022-08-25T09:45:10;34.70;1.00
27747;DHT22;15138;51.012;4.692;2022-08-25T09:47:41;35.10;1.00
27747;DHT22;15138;51.012;4.692;2022-08-25T09:50:14;34.90;1.00
27747;DHT22;15138;51.012;4.692;2022-08-25T09:52:44;35.40;1.00
27747;DHT22;15138;51.012;4.692;2022-08-25T09:55:29;35.90;1.00
27747;DHT22;15138;51.012;4.692;2022-08-25T09:58:00;36.00;1.00
27747;DHT22;15138;51.012;4.692;2022-08-25T10:00:42;36.60;1.00
27747;DHT22;15138;51.012;4.692;2022-08-25T10:03:13;37.00;1.00
27747;DHT22;15138;51.012;4.692;2022-08-25T10:08:28;37.30;1.00
27747;DHT22;15138;51.012;4.692;2022-08-25T10:10:58;37.90;1.00
27747;DHT22;15138;51.012;4.692;2022-08-25T10:13:34;38.20;1.00
27747;DHT22;15138;51.012;4.692;2022-08-25T10:16:03;38.50;1.00
27747;DHT22;15138;51.012;4.692;2022-08-25T10:19:03;38.30;1.00
27747;DHT22;15138;51.012;4.692;2022-08-25T10:21:33;38.90;1.00
27747;DHT22;15138;51.012;4.692;2022-08-25T10:24:02;39.30;1.00
27747;DHT22;15138;51.012;4.692;2022-08-25T10:26:35;39.60;1.00
27747;DHT22;15138;51.012;4.692;2022-08-25T10:29:07;39.90;1.00
27747;DHT22;15138;51.012;4.692;2022-08-25T10:31:39;39.80;1.00
27747;DHT22;15138;51.012;4.692;2022-08-25T10:34:18;40.00;99.90
27747;DHT22;15138;51.012;4.692;2022-08-25T10:36:52;40.40;99.90
27747;DHT22;15138;51.012;4.692;2022-08-25T10:39:27;40.30;99.90
27747;DHT22;15138;51.012;4.692;2022-08-25T10:42:03;40.20;99.90
27747;DHT22;15138;51.012;4.692;2022-08-25T10:44:35;39.60;99.90
27747;DHT22;15138;51.012;4.692;2022-08-25T10:50:09;39.60;99.90
27747;DHT22;15138;51.012;4.692;2022-08-25T10:52:43;40.50;99.90
27747;DHT22;15138;51.012;4.692;2022-08-25T10:55:19;40.40;99.90
27747;DHT22;15138;51.012;4.692;2022-08-25T10:57:50;40.90;99.90
27747;DHT22;15138;51.012;4.692;2022-08-25T11:00:20;41.50;99.90
27747;DHT22;15138;51.012;4.692;2022-08-25T11:03:12;41.20;99.90
27747;DHT22;15138;51.012;4.692;2022-08-25T11:05:44;40.80;99.90
27747;DHT22;15138;51.012;4.692;2022-08-25T11:08:16;40.80;99.90
27747;DHT22;15138;51.012;4.692;2022-08-25T11:10:48;40.90;99.90
27747;DHT22;15138;51.012;4.692;2022-08-25T11:13:21;40.70;99.90
27747;DHT22;15138;51.012;4.692;2022-08-25T11:15:52;41.10;99.90
27747;DHT22;15138;51.012;4.692;2022-08-25T11:18:43;41.50;99.90
27747;DHT22;15138;51.012;4.692;2022-08-25T11:21:13;41.70;99.90
27747;DHT22;15138;51.012;4.692;2022-08-25T11:23:43;41.10;1.00
27747;DHT22;15138;51.012;4.692;2022-08-25T11:26:15;39.80;1.00
27747;DHT22;15138;51.012;4.692;2022-08-25T11:28:48;39.40;99.90
27747;DHT22;15138;51.012;4.692;2022-08-25T11:31:19;40.20;99.90
27747;DHT22;15138;51.012;4.692;2022-08-25T11:33:48;40.30;99.90
27747;DHT22;15138;51.012;4.692;2022-08-25T11:36:18;41.20;99.90
27747;DHT22;15138;51.012;4.692;2022-08-25T11:38:56;41.60;99.90
27747;DHT22;15138;51.012;4.692;2022-08-25T11:41:33;41.10;99.90
27747;DHT22;15138;51.012;4.692;2022-08-25T11:44:08;40.30;99.90
27747;DHT22;15138;51.012;4.692;2022-08-25T11:46:44;41.10;99.90
27747;DHT22;15138;51.012;4.692;2022-08-25T11:49:23;41.40;99.90
27747;DHT22;15138;51.012;4.692;2022-08-25T11:51:52;41.70;99.90
27747;DHT22;15138;51.012;4.692;2022-08-25T11:54:29;41.80;99.90
27747;DHT22;15138;51.012;4.692;2022-08-25T11:57:03;42.30;99.90
27747;DHT22;15138;51.012;4.692;2022-08-25T12:02:30;43.20;99.90
27747;DHT22;15138;51.012;4.692;2022-08-25T12:04:59;43.20;99.90
27747;DHT22;15138;51.012;4.692;2022-08-25T12:07:30;43.00;99.90
27747;DHT22;15138;51.012;4.692;2022-08-25T12:10:51;41.20;99.90
27747;DHT22;15138;51.012;4.692;2022-08-25T12:13:26;41.30;99.90
27747;DHT22;15138;51.012;4.692;2022-08-25T12:16:04;41.80;99.90
27747;DHT22;15138;51.012;4.692;2022-08-25T12:18:42;41.80;99.90
27747;DHT22;15138;51.012;4.692;2022-08-25T12:21:15;42.40;99.90
27747;DHT22;15138;51.012;4.692;2022-08-25T12:24:08;42.20;99.90
27747;DHT22;15138;51.012;4.692;2022-08-25T12:26:39;42.90;99.90
27747;DHT22;15138;51.012;4.692;2022-08-25T12:29:14;42.70;99.90
27747;DHT22;15138;51.012;4.692;2022-08-25T12:31:51;42.60;99.90
27747;DHT22;15138;51.012;4.692;2022-08-25T12:34:37;42.80;99.90
27747;DHT22;15138;51.012;4.692;2022-08-25T12:37:11;42.60;99.90
27747;DHT22;15138;51.012;4.692;2022-08-25T12:39:44;42.50;99.90
27747;DHT22;15138;51.012;4.692;2022-08-25T12:42:20;42.50;99.90
27747;DHT22;15138;51.012;4.692;2022-08-25T12:51:00;42.80;99.90
27747;DHT22;15138;51.012;4.692;2022-08-25T12:53:32;43.20;99.90
27747;DHT22;15138;51.012;4.692;2022-08-25T12:56:02;43.30;99.90
27747;DHT22;15138;51.012;4.692;2022-08-25T12:58:33;42.70;99.90
27747;DHT22;15138;51.012;4.692;2022-08-25T13:01:25;43.20;99.90
27747;DHT22;15138;51.012;4.692;2022-08-25T13:04:18;42.30;99.90
27747;DHT22;15138;51.012;4.692;2022-08-25T13:07:01;42.80;99.90
27747;DHT22;15138;51.012;4.692;2022-08-25T13:12:20;43.40;99.90
27747;DHT22;15138;51.012;4.692;2022-08-25T13:14:51;43.10;99.90
27747;DHT22;15138;51.012;4.692;2022-08-25T13:17:26;43.20;99.90
27747;DHT22;15138;51.012;4.692;2022-08-25T13:20:12;43.10;99.90
27747;DHT22;15138;51.012;4.692;2022-08-25T13:22:42;43.70;99.90
27747;DHT22;15138;51.012;4.692;2022-08-25T13:25:13;43.00;99.90
27747;DHT22;15138;51.012;4.692;2022-08-25T13:27:48;43.60;99.90
27747;DHT22;15138;51.012;4.692;2022-08-25T13:30:24;43.70;99.90
27747;DHT22;15138;51.012;4.692;2022-08-25T13:32:54;43.80;99.90
27747;DHT22;15138;51.012;4.692;2022-08-25T13:35:25;43.80;99.90
27747;DHT22;15138;51.012;4.692;2022-08-25T13:38:10;44.00;99.90
27747;DHT22;15138;51.012;4.692;2022-08-25T13:40:38;43.90;99.90
27747;DHT22;15138;51.012;4.692;2022-08-25T13:43:09;44.20;99.90
27747;DHT22;15138;51.012;4.692;2022-08-25T13:45:38;43.90;99.90
27747;DHT22;15138;51.012;4.692;2022-08-25T13:48:07;43.80;99.90
27747;DHT22;15138;51.012;4.692;2022-08-25T13:50:50;43.70;99.90
27747;DHT22;15138;51.012;4.692;2022-08-25T13:53:20;43.30;99.90
27747;DHT22;15138;51.012;4.692;2022-08-25T13:55:49;42.90;99.90
27747;DHT22;15138;51.012;4.692;2022-08-25T13:58:20;43.20;99.90
27747;DHT22;15138;51.012;4.692;2022-08-25T14:01:00;43.30;99.90
27747;DHT22;15138;51.012;4.692;2022-08-25T14:03:49;43.50;99.90
27747;DHT22;15138;51.012;4.692;2022-08-25T14:06:22;43.70;99.90
27747;DHT22;15138;51.012;4.692;2022-08-25T14:09:05;42.00;99.90
27747;DHT22;15138;51.012;4.692;2022-08-25T14:11:40;41.80;99.90
27747;DHT22;15138;51.012;4.692;2022-08-25T14:14:09;41.80;99.90
27747;DHT22;15138;51.012;4.692;2022-08-25T14:16:38;42.50;99.90
27747;DHT22;15138;51.012;4.692;2022-08-25T14:19:11;43.00;99.90
27747;DHT22;15138;51.012;4.692;2022-08-25T14:21:47;42.70;99.90
27747;DHT22;15138;51.012;4.692;2022-08-25T14:24:22;42.00;99.90
27747;DHT22;15138;51.012;4.692;2022-08-25T14:26:50;41.60;99.90
27747;DHT22;15138;51.012;4.692;2022-08-25T14:29:20;41.60;99.90
27747;DHT22;15138;51.012;4.692;2022-08-25T14:31:49;40.90;99.90
27747;DHT22;15138;51.012;4.692;2022-08-25T14:34:18;40.90;99.90
27747;DHT22;15138;51.012;4.692;2022-08-25T14:36:50;40.70;99.90
27747;DHT22;15138;51.012;4.692;2022-08-25T14:39:19;40.50;99.90
27747;DHT22;15138;51.012;4.692;2022-08-25T14:41:47;40.30;99.90
27747;DHT22;15138;51.012;4.692;2022-08-25T14:44:19;39.90;99.90
27747;DHT22;15138;51.012;4.692;2022-08-25T14:46:48;39.60;99.90
27747;DHT22;15138;51.012;4.692;2022-08-25T14:49:19;39.40;99.90
27747;DHT22;15138;51.012;4.692;2022-08-25T14:51:52;38.90;99.90
27747;DHT22;15138;51.012;4.692;2022-08-25T14:54:21;39.00;99.90
27747;DHT22;15138;51.012;4.692;2022-08-25T14:56:52;38.80;99.90
27747;DHT22;15138;51.012;4.692;2022-08-25T14:59:20;38.70;99.90
27747;DHT22;15138;51.012;4.692;2022-08-25T15:01:48;38.50;99.90
27747;DHT22;15138;51.012;4.692;2022-08-25T15:04:18;38.30;99.90
27747;DHT22;15138;51.012;4.692;2022-08-25T15:06:47;38.10;99.90
27747;DHT22;15138;51.012;4.692;2022-08-25T15:09:19;38.00;99.90
27747;DHT22;15138;51.012;4.692;2022-08-25T15:11:48;38.00;99.90
27747;DHT22;15138;51.012;4.692;2022-08-25T15:14:20;37.80;99.90
27747;DHT22;15138;51.012;4.692;2022-08-25T15:16:55;37.90;99.90
27747;DHT22;15138;51.012;4.692;2022-08-25T15:19:24;37.90;99.90
27747;DHT22;15138;51.012;4.692;2022-08-25T15:21:53;38.10;99.90
27747;DHT22;15138;51.012;4.692;2022-08-25T15:24:26;37.80;99.90
27747;DHT22;15138;51.012;4.692;2022-08-25T15:26:55;38.20;99.90
27747;DHT22;15138;51.012;4.692;2022-08-25T15:29:25;38.20;99.90
27747;DHT22;15138;51.012;4.692;2022-08-25T15:31:55;38.50;99.90
27747;DHT22;15138;51.012;4.692;2022-08-25T15:34:23;37.90;99.90
27747;DHT22;15138;51.012;4.692;2022-08-25T15:36:51;38.00;99.90
27747;DHT22;15138;51.012;4.692;2022-08-25T15:39:19;37.60;99.90
27747;DHT22;15138;51.012;4.692;2022-08-25T15:41:49;37.60;99.90
27747;DHT22;15138;51.012;4.692;2022-08-25T15:44:18;37.60;99.90
27747;DHT22;15138;51.012;4.692;2022-08-25T15:46:46;37.50;99.90
27747;DHT22;15138;51.012;4.692;2022-08-25T15:49:16;37.40;99.90
27747;DHT22;15138;51.012;4.692;2022-08-25T15:51:49;37.10;99.90
27747;DHT22;15138;51.012;4.692;2022-08-25T15:54:18;37.00;99.90
27747;DHT22;15138;51.012;4.692;2022-08-25T15:56:46;36.70;99.90
27747;DHT22;15138;51.012;4.692;2022-08-25T15:59:15;36.20;99.90
27747;DHT22;15138;51.012;4.692;2022-08-25T16:01:47;35.90;99.90
27747;DHT22;15138;51.012;4.692;2022-08-25T16:04:19;35.70;99.90
27747;DHT22;15138;51.012;4.692;2022-08-25T16:06:48;35.60;99.90
27747;DHT22;15138;51.012;4.692;2022-08-25T16:09:17;35.60;99.90
27747;DHT22;15138;51.012;4.692;2022-08-25T16:11:48;35.40;99.90
27747;DHT22;15138;51.012;4.692;2022-08-25T16:14:24;35.30;99.90
27747;DHT22;15138;51.012;4.692;2022-08-25T16:16:53;35.10;99.90
27747;DHT22;15138;51.012;4.692;2022-08-25T16:19:25;34.90;99.90
27747;DHT22;15138;51.012;4.692;2022-08-25T16:21:53;34.70;99.90